createdAt,value
2023-05-03T00:00:27.660Z,0.47
2023-05-03T00:05:29.188Z,0.40
2023-05-03T00:10:30.863Z,0.38
2023-05-03T00:15:32.346Z,0.50
2023-05-03T00:20:33.946Z,0.63
2023-05-03T00:25:35.543Z,0.50
2023-05-03T00:30:37.082Z,0.43
2023-05-03T00:35:38.603Z,0.40
2023-05-03T00:40:40.275Z,0.35
2023-05-03T00:45:42.168Z,0.30
2023-05-03T00:50:43.784Z,0.22
2023-05-03T00:55:45.600Z,0.50
2023-05-03T01:00:47.683Z,0.50
2023-05-03T01:06:12.590Z,0.50
2023-05-03T01:11:17.921Z,0.47
2023-05-03T01:16:24.543Z,0.60
2023-05-03T01:21:26.097Z,0.77
2023-05-03T01:26:28.089Z,0.47
2023-05-03T01:31:42.091Z,0.50
2023-05-03T01:36:44.363Z,0.50
2023-05-03T01:41:47.040Z,0.68
2023-05-03T01:46:49.775Z,0.60
2023-05-03T01:51:51.240Z,0.57
2023-05-03T01:56:52.695Z,0.55
2023-05-03T02:01:54.182Z,0.60
2023-05-03T02:06:55.656Z,0.32
2023-05-03T02:11:57.152Z,0.50
2023-05-03T02:16:59.277Z,0.45
2023-05-03T02:22:00.836Z,0.43
2023-05-03T02:27:04.860Z,0.55
2023-05-03T02:32:06.453Z,0.47
2023-05-03T02:37:07.952Z,0.65
2023-05-03T02:42:09.546Z,0.63
2023-05-03T02:47:11.229Z,0.60
2023-05-03T02:52:12.706Z,0.50
2023-05-03T02:57:14.207Z,0.60
2023-05-03T03:02:15.686Z,0.60
2023-05-03T03:07:17.243Z,0.50
2023-05-03T03:12:18.753Z,0.47
2023-05-03T03:17:20.234Z,0.65
2023-05-03T03:22:21.744Z,0.50
2023-05-03T03:27:24.152Z,0.32
2023-05-03T03:32:26.026Z,0.75
2023-05-03T03:37:27.512Z,0.47
2023-05-03T03:42:29.099Z,0.57
2023-05-03T03:47:30.835Z,0.40
2023-05-03T03:52:32.704Z,0.60
2023-05-03T03:57:34.179Z,0.50
2023-05-03T04:02:35.750Z,0.38
2023-05-03T04:07:37.280Z,0.30
2023-05-03T04:12:38.828Z,0.57
2023-05-03T04:17:40.358Z,0.68
2023-05-03T04:22:41.952Z,0.47
2023-05-03T04:27:43.979Z,0.60
2023-05-03T04:32:45.506Z,0.50
2023-05-03T04:37:47.043Z,0.68
2023-05-03T04:42:48.912Z,0.40
2023-05-03T04:47:50.587Z,0.50
2023-05-03T04:52:52.119Z,0.30
2023-05-03T04:57:54.239Z,0.47
2023-05-03T05:02:56.812Z,0.50
2023-05-03T05:07:58.416Z,0.40
2023-05-03T05:13:00.121Z,0.70
2023-05-03T05:18:01.752Z,0.60
2023-05-03T05:23:03.312Z,0.50
2023-05-03T05:28:04.886Z,0.20
2023-05-03T05:33:06.551Z,0.50
2023-05-03T05:38:08.246Z,0.20
2023-05-03T05:43:10.005Z,0.30
2023-05-03T05:48:11.890Z,0.25
2023-05-03T05:53:13.430Z,0.30
2023-05-03T05:58:14.924Z,0.40
2023-05-03T06:03:16.457Z,0.32
2023-05-03T06:08:18.004Z,0.38
2023-05-03T06:13:19.499Z,0.40
2023-05-03T06:18:21.137Z,0.43
2023-05-03T06:23:22.628Z,0.50
2023-05-03T06:28:24.088Z,0.40
2023-05-03T06:33:25.715Z,0.60
2023-05-03T06:38:27.200Z,0.60
2023-05-03T06:43:28.916Z,0.40
2023-05-03T06:48:30.868Z,0.32
2023-05-03T06:53:32.346Z,0.40
2023-05-03T06:58:33.875Z,0.22
2023-05-03T07:03:40.128Z,0.40
2023-05-03T07:08:43.188Z,0.20
2023-05-03T07:13:44.734Z,0.22
2023-05-03T07:18:46.795Z,0.40
2023-05-03T07:23:48.279Z,0.50
2023-05-03T07:28:50.544Z,0.32
2023-05-03T07:33:52.162Z,0.50
2023-05-03T07:38:54.085Z,0.28
2023-05-03T07:43:55.990Z,0.50
2023-05-03T07:48:58.760Z,0.30
2023-05-03T07:54:00.896Z,0.45
2023-05-03T07:59:09.308Z,0.50
2023-05-03T08:04:11.992Z,0.38
2023-05-03T08:09:14.171Z,0.35
2023-05-03T08:14:15.698Z,0.25
2023-05-03T08:19:17.220Z,0.40
2023-05-03T08:24:18.696Z,0.50
2023-05-03T08:29:20.141Z,0.32
2023-05-03T08:34:21.683Z,0.22
2023-05-03T08:39:25.031Z,0.30
2023-05-03T08:44:29.358Z,0.20
2023-05-03T08:49:32.834Z,0.10
2023-05-03T08:54:34.355Z,0.30
2023-05-03T08:59:46.572Z,0.30
2023-05-03T09:04:48.046Z,0.45
2023-05-03T09:09:49.582Z,0.30
2023-05-03T09:14:51.046Z,0.22
2023-05-03T09:19:54.104Z,0.30
2023-05-03T09:24:57.097Z,0.30
2023-05-03T09:30:16.737Z,0.20
2023-05-03T09:35:18.393Z,0.28
2023-05-03T09:40:19.873Z,0.40
2023-05-03T09:45:24.108Z,0.20
2023-05-03T09:50:26.840Z,0.30
2023-05-03T09:55:28.782Z,0.30
2023-05-03T10:00:30.716Z,0.30
2023-05-03T10:05:33.590Z,0.30
2023-05-03T10:10:35.459Z,0.50
2023-05-03T10:15:37.944Z,0.28
2023-05-03T10:20:41.695Z,0.30
2023-05-03T10:26:06.721Z,0.22
2023-05-03T10:31:28.160Z,0.30
2023-05-03T10:36:38.331Z,0.30
2023-05-03T10:42:09.071Z,0.15
2023-05-03T10:47:14.739Z,0.40
2023-05-03T10:52:34.971Z,0.13
2023-05-03T10:57:39.573Z,0.27
2023-05-03T11:03:00.469Z,0.60
2023-05-03T11:08:18.924Z,0.30
2023-05-03T11:13:20.462Z,0.20
2023-05-03T11:18:22.330Z,0.35
2023-05-03T11:23:28.485Z,0.30
2023-05-03T11:28:30.026Z,0.15
2023-05-03T11:33:31.719Z,0.30
2023-05-03T11:38:33.944Z,0.25
2023-05-03T11:43:41.064Z,0.30
2023-05-03T11:48:43.695Z,0.20
2023-05-03T11:53:45.285Z,0.20
2023-05-03T11:58:53.876Z,0.50
2023-05-03T12:03:59.648Z,0.22
2023-05-03T12:09:01.833Z,0.22
2023-05-03T12:14:03.861Z,0.20
2023-05-03T12:19:05.742Z,0.20
2023-05-03T12:24:10.808Z,0.40
2023-05-03T12:29:13.220Z,0.20
2023-05-03T12:34:32.470Z,0.35
2023-05-03T12:39:39.533Z,0.20
2023-05-03T12:44:43.014Z,0.30
2023-05-03T12:49:46.446Z,0.30
2023-05-03T12:54:49.406Z,0.38
2023-05-03T12:59:54.502Z,0.10
2023-05-03T13:05:07.291Z,0.20
2023-05-03T13:15:20.273Z,0.20
2023-05-03T13:20:22.773Z,0.30
2023-05-03T13:25:24.255Z,0.20
2023-05-03T13:30:25.911Z,0.30
2023-05-03T13:35:27.436Z,0.17
2023-05-03T13:40:29.329Z,0.35
2023-05-03T13:45:31.156Z,0.30
2023-05-03T13:50:32.950Z,0.22
2023-05-03T13:55:34.465Z,0.20
2023-05-03T14:00:36.251Z,0.25
2023-05-03T14:05:37.861Z,0.22
2023-05-03T14:10:40.419Z,0.17
2023-05-03T14:15:43.241Z,0.30
2023-05-03T14:20:45.149Z,0.20
2023-05-03T14:25:46.638Z,0.28
2023-05-03T14:30:48.130Z,0.30
2023-05-03T14:35:49.614Z,0.30
2023-05-03T14:40:54.019Z,0.38
2023-05-03T14:45:56.079Z,0.30
2023-05-03T14:50:57.840Z,0.30
2023-05-03T14:55:59.568Z,0.30
2023-05-03T15:01:01.280Z,0.20
2023-05-03T15:06:02.911Z,0.10
2023-05-03T15:11:05.256Z,0.10
2023-05-03T15:16:06.964Z,0.13
2023-05-03T15:21:08.459Z,0.20
2023-05-03T15:26:09.951Z,0.20
2023-05-03T15:31:14.863Z,0.30
2023-05-03T15:36:17.085Z,0.20
2023-05-03T15:41:18.602Z,0.20
2023-05-03T15:46:20.280Z,0.22
2023-05-03T15:51:21.846Z,0.20
2023-05-03T15:56:23.422Z,0.20
2023-05-03T16:01:25.266Z,0.30
2023-05-03T16:06:28.395Z,0.30
2023-05-03T16:11:29.910Z,0.30
2023-05-03T16:16:31.511Z,0.40
2023-05-03T16:21:33.148Z,0.30
2023-05-03T16:26:35.157Z,0.77
2023-05-03T16:31:36.718Z,0.50
2023-05-03T16:36:42.880Z,0.52
2023-05-03T16:41:44.613Z,0.60
2023-05-03T16:46:46.864Z,0.60
2023-05-03T16:51:48.566Z,0.40
2023-05-03T16:56:50.257Z,0.60
2023-05-03T17:01:53.347Z,0.70
2023-05-03T17:06:56.193Z,0.45
2023-05-03T17:11:58.863Z,0.50
2023-05-03T17:17:00.625Z,0.60
2023-05-03T17:22:02.160Z,0.43
2023-05-03T17:27:04.082Z,0.50
2023-05-03T17:32:05.681Z,0.50
2023-05-03T17:37:07.244Z,0.57
2023-05-03T17:42:09.245Z,0.40
2023-05-03T17:47:11.321Z,0.30
2023-05-03T17:52:12.853Z,0.35
2023-05-03T17:57:14.594Z,0.40
2023-05-03T18:02:16.126Z,0.30
2023-05-03T18:07:17.695Z,0.22
2023-05-03T18:12:19.177Z,0.45
2023-05-03T18:17:20.688Z,0.52
2023-05-03T18:22:22.505Z,0.57
2023-05-03T18:27:24.064Z,0.50
2023-05-03T18:32:25.589Z,0.50
2023-05-03T18:37:27.631Z,0.77
2023-05-03T18:42:29.163Z,0.35
2023-05-03T18:47:31.141Z,0.30
2023-05-03T18:52:32.683Z,0.45
2023-05-03T18:57:34.246Z,0.30
2023-05-03T19:02:35.892Z,0.40
2023-05-03T19:07:37.521Z,0.60
2023-05-03T19:12:40.836Z,0.52
2023-05-03T19:17:42.722Z,0.68
2023-05-03T19:22:44.316Z,0.77
2023-05-03T19:27:45.908Z,0.70
2023-05-03T19:32:47.779Z,0.50
2023-05-03T19:37:49.355Z,0.30
2023-05-03T19:42:52.435Z,0.35
2023-05-03T19:47:54.181Z,0.30
2023-05-03T19:52:55.725Z,0.55
2023-05-03T19:57:57.234Z,0.52
2023-05-03T20:02:58.779Z,0.50
2023-05-03T20:08:00.643Z,0.40
2023-05-03T20:13:05.844Z,0.47
2023-05-03T20:18:08.323Z,0.45
2023-05-03T20:23:09.954Z,0.85
2023-05-03T20:28:11.466Z,0.60
2023-05-03T20:33:12.969Z,0.75
2023-05-03T20:38:14.527Z,0.75
2023-05-03T20:43:16.422Z,0.80
2023-05-03T20:48:18.173Z,0.60
2023-05-03T20:53:19.792Z,0.63
2023-05-03T20:58:21.411Z,0.75
2023-05-03T21:03:24.304Z,1.00
2023-05-03T21:08:25.908Z,0.80
2023-05-03T21:13:27.504Z,0.93
2023-05-03T21:18:29.002Z,0.73
2023-05-03T21:23:30.497Z,0.50
2023-05-03T21:28:32.464Z,0.38
2023-05-03T21:33:33.971Z,0.80
2023-05-03T21:38:36.013Z,0.60
2023-05-03T21:43:38.063Z,0.77
2023-05-03T21:48:40.382Z,0.88
2023-05-03T21:53:42.358Z,0.50
2023-05-03T21:58:44.501Z,0.80
2023-05-03T22:03:46.166Z,0.80
2023-05-03T22:08:47.836Z,0.55
2023-05-03T22:14:05.934Z,0.55
2023-05-03T22:19:09.159Z,0.70
2023-05-03T22:24:11.153Z,0.85
2023-05-03T22:29:12.777Z,0.75
2023-05-03T22:34:14.339Z,0.60
2023-05-03T22:39:15.862Z,0.60
2023-05-03T22:44:17.718Z,0.57
2023-05-03T22:49:19.833Z,0.55
2023-05-03T22:54:22.558Z,1.33
2023-05-03T22:59:24.170Z,3.03
2023-05-03T23:04:25.690Z,4.40
2023-05-03T23:09:27.270Z,4.78
2023-05-03T23:14:28.783Z,4.15
2023-05-03T23:19:30.344Z,2.33
2023-05-03T23:24:31.815Z,2.40
2023-05-03T23:29:33.311Z,1.55
2023-05-03T23:34:35.314Z,1.23
2023-05-03T23:39:37.271Z,1.20
2023-05-03T23:44:54.051Z,1.00
2023-05-03T23:49:57.108Z,1.25
2023-05-03T23:54:58.739Z,0.80
